Trenton, Georgia
Current Conditions -  °F | °C
As of 11:53 PM on Wednesday 22 Oct 2014 (Local Time) from KCHA Reporting Station
Clear Clear  
Wind Chill: 50°   Ceiling: Unl
Heat Index: 50°   Visibility: 10mi
Dew Point: 41°   Wind: 12mph
Humidity: 71%   Direction: 20°NNE
Pressure: 30.21"   Gusts: 18mph
Location:  34.87°N, 85.51°W
Report Text: KCHA 230353Z 02010G16KT 10SM CLR 10/05 A3021 RMK AO2 SLP229 LAST T01000050
Loading
Personal Weather Stations






























Interactive Weather Map
Tropical Storm Tracking
New forecast layout! Learn more

10-Day Weather Forecast

Advertisements
Track Severe Weather on mobile